• Join FlightAware (Why Join?)
  • Login
  • US Flag 
06:01PM EDT


 

Airport Tracker/Info


-or-


 

Live Flight TrackerFlight Track Log ✈ QJE1939 ✈ 08-May-2013 ✈ YPDN / DRW - YBAS / ASP

Flight Track Log - Related Links

Times and Time Zones

All times are in EDT time to prevent confusion due to time zone crossing. See the QJE1939 flight status page for this flight to view local times or setup timezone preferences in your user account.

Time Position Orientation Groundspeed Altitude Reporting Facility
EDT Latitude Longitude Course Direction KTS MPH feet Rate Location/Type
01:19AM -12.4350 130.9398 107° East 5,500  Level Aus ATC (Calculated)
01:20AM -12.4399 130.9565 107° East 183 211 2,800 -1,260 Descending Aus ATC (RADAR)
01:21AM -12.4471 130.9801 107° East 201 231 3,400 1,680 Climbing Aus ATC (RADAR)
01:21AM -12.4655 131.0015 132° Southeast 227 261 4,200 2,280 Climbing Aus ATC (RADAR)
01:22AM -12.5080 131.0091 170° South 261 300 5,700 1,320 Climbing Aus ATC (RADAR)
01:22AM -12.5644 131.0155 174° South 264 304 6,000 180 Climbing Aus ATC (RADAR)
01:23AM -12.6100 131.0350 157° South 264 304 6,000 720 Level Aus ATC (RADAR)
01:24AM -12.6561 131.0671 146° Southeast 257 296 7,100 1,800 Climbing Aus ATC (RADAR)
01:24AM -12.6821 131.0846 147° Southeast 256 295 8,100 2,100 Climbing Aus ATC (RADAR)
01:25AM -12.7613 131.1382 147° Southeast 280 322 10,500 1,740 Climbing Aus ATC (RADAR)
01:26AM -12.7974 131.1488 164° South 305 351 10,900 1,080 Climbing Aus ATC (RADAR)
01:27AM -12.8570 131.1724 159° South 342 394 11,700 1,620 Climbing Aus ATC (RADAR)
01:27AM -12.9278 131.1981 161° South 352 405 13,200 1,860 Climbing Aus ATC (RADAR)
01:28AM -12.9846 131.2194 160° South 361 415 14,200 1,740 Climbing Aus ATC (RADAR)
01:29AM -13.0652 131.2496 160° South 361 415 15,700 1,680 Climbing Aus ATC (RADAR)
01:29AM -13.1079 131.2658 160° South 374 430 16,300 1,800 Climbing Aus ATC (RADAR)
01:30AM -13.1670 131.2877 160° South 377 434 17,500 1,500 Climbing Aus ATC (RADAR)
01:31AM -13.2876 131.3324 160° South 392 451 19,000 1,320 Climbing Aus ATC (RADAR)
01:31AM -13.3411 131.3536 159° South 397 457 19,700 1,440 Climbing Aus ATC (RADAR)
01:32AM -13.4050 131.3768 161° South 407 468 20,600 1,440 Climbing Aus ATC (RADAR)
01:33AM -13.4685 131.4007 160° South 407 468 21,400 1,440 Climbing Aus ATC (RADAR)
01:33AM -13.5426 131.4281 160° South 412 474 22,400 1,380 Climbing Aus ATC (RADAR)
01:34AM -13.6345 131.4628 160° South 413 475 23,500 1,200 Climbing Aus ATC (RADAR)
01:34AM -13.6718 131.4766 160° South 417 480 23,800 1,080 Climbing Aus ATC (RADAR)
01:35AM -13.7378 131.5023 159° South 424 488 24,500 1,020 Climbing Aus ATC (RADAR)
01:36AM -13.8618 131.5481 160° South 432 497 25,500 900 Climbing Aus ATC (RADAR)
01:37AM -13.9199 131.5699 160° South 433 498 26,000 900 Climbing Aus ATC (RADAR)
01:37AM -13.9888 131.5965 159° South 442 509 26,500 900 Climbing Aus ATC (RADAR)
01:38AM -14.0766 131.6301 160° South 441 507 27,200 900 Climbing Aus ATC (RADAR)
01:38AM -14.1458 131.6564 160° South 444 511 27,700 1,080 Climbing Aus ATC (RADAR)
01:39AM -14.2445 131.6938 160° South 442 509 28,800 1,320 Climbing Aus ATC (RADAR)
01:40AM -14.2929 131.7124 160° South 438 504 29,400 1,320 Climbing Aus ATC (RADAR)
01:41AM -14.4167 131.7585 160° South 424 488 30,800 1,200 Climbing Aus ATC (RADAR)
01:41AM -14.4644 131.7767 160° South 427 491 31,200 960 Climbing Aus ATC (RADAR)
01:42AM -14.5207 131.7988 159° South 425 489 31,700 900 Climbing Aus ATC (RADAR)
01:42AM -14.5868 131.8239 160° South 425 489 32,200 660 Climbing Aus ATC (RADAR)
01:43AM -14.6726 131.8564 160° South 430 495 32,600 480 Climbing Aus ATC (RADAR)
01:44AM -14.7395 131.8819 160° South 429 494 32,900 180 Climbing Aus ATC (RADAR)
01:44AM -14.8247 131.9139 160° South 426 490 32,900  Level Aus ATC (RADAR)
01:45AM -14.8717 131.9320 160° South 426 490 32,900  Level Aus ATC (RADAR)
01:46AM -14.9950 131.9790 160° South 429 494 32,900  Level Aus ATC (RADAR)
01:46AM -15.0519 132.0009 160° South 428 493 32,900  Level Aus ATC (RADAR)
01:47AM -15.0995 132.0189 160° South 427 491 32,900  Level Aus ATC (RADAR)
01:47AM -15.1658 132.0442 160° South 428 493 32,900  Level Aus ATC (RADAR)
01:48AM -15.2600 132.0806 160° South 425 489 32,900  Level Aus ATC (RADAR)
01:49AM -15.3262 132.1052 160° South 425 489 32,900  Level Aus ATC (RADAR)
01:50AM -15.4201 132.1407 160° South 423 487 32,900  Level Aus ATC (RADAR)
01:50AM -15.4482 132.1518 159° South 423 487 32,900  Level Aus ATC (RADAR)
01:51AM -15.5604 132.1972 159° South 424 488 32,900  Level Aus ATC (RADAR)
01:51AM -15.6165 132.2189 160° South 425 489 32,900  Level Aus ATC (RADAR)
01:52AM -15.6635 132.2371 160° South 425 489 32,900  Level Aus ATC (RADAR)
01:52AM -15.7286 132.2623 160° South 424 488 32,900  Level Aus ATC (RADAR)
01:53AM -15.8131 132.2947 160° South 424 488 32,900  Level Aus ATC (RADAR)
01:54AM -15.8788 132.3203 159° South 424 488 32,900  Level Aus ATC (RADAR)
01:54AM -15.9735 132.3566 160° South 429 494 32,900  Level Aus ATC (RADAR)
01:55AM -16.0194 132.3754 159° South 424 488 32,900  Level Aus ATC (RADAR)
01:56AM -16.1235 132.4165 159° South 429 494 32,900  Level Aus ATC (RADAR)
01:56AM -16.1792 132.4383 159° South 424 488 32,900  Level Aus ATC (RADAR)
01:57AM -16.2263 132.4562 160° South 427 491 32,900  Level Aus ATC (RADAR)
01:57AM -16.2918 132.4809 160° South 426 490 32,900  Level Aus ATC (RADAR)
01:58AM -16.3850 132.5175 159° South 425 489 32,900  Level Aus ATC (RADAR)
01:59AM -16.4506 132.5435 159° South 427 491 32,900  Level Aus ATC (RADAR)
01:59AM -16.5346 132.5769 159° South 426 490 32,900  Level Aus ATC (RADAR)
02:00AM -16.5722 132.5917 159° South 428 493 32,900  Level Aus ATC (RADAR)
02:00AM -16.6471 132.6204 160° South 427 491 32,900  Level Aus ATC (RADAR)
02:02AM -16.7676 132.6685 159° South 424 488 32,900  Level Aus ATC (RADAR)
02:02AM -16.8143 132.6873 159° South 426 490 32,900  Level Aus ATC (RADAR)
02:03AM -16.8796 132.7128 160° South 424 488 32,900  Level Aus ATC (RADAR)
02:03AM -16.9547 132.7411 160° South 426 490 32,900  Level Aus ATC (RADAR)
02:04AM -17.0285 132.7694 160° South 420 483 32,900  Level Aus ATC (RADAR)
02:05AM -17.1254 132.7854 171° South 420 483 32,900  Level Aus ATC (RADAR)
02:06AM -17.2227 132.7939 175° South 418 481 32,900  Level Aus ATC (RADAR)
02:07AM -17.3756 132.8191 171° South 413 475 32,900  Level Aus ATC (RADAR)
02:07AM -17.4237 132.8266 172° South 415 478 32,900 60 Level Aus ATC (RADAR)
02:08AM -17.4909 132.8374 171° South 419 482 33,000 60 Climbing Aus ATC (RADAR)
02:09AM -17.5864 132.8535 171° South 417 480 33,000  Level Aus ATC (RADAR)
02:09AM -17.6528 132.8651 171° South 414 476 33,000  Level Aus ATC (RADAR)
02:12AM -17.9792 132.9181 171° South 439 505 33,000  Level Aus ATC (RADAR)
02:13AM -18.0437 132.9300 170° South 408 470 33,000  Level Aus ATC (RADAR)
02:14AM -18.2082 132.9518 173° South 410 472 33,000  Level Aus ATC (RADAR)
02:17AM -18.6233 133.0170 171° South 33,000  Level Aus ATC (Calculated)
02:19AM -18.7438 133.0364 171° South  Level FlightAware Approximate
02:20AM -18.8568 133.0546 171° South  Level FlightAware Approximate
02:21AM -18.9697 133.0728 171° South  Level FlightAware Approximate
02:22AM -19.0827 133.0910 171° South  Level FlightAware Approximate
02:23AM -19.1957 133.1092 171° South  Level FlightAware Approximate
02:24AM -19.3086 133.1275 171° South  Level FlightAware Approximate
02:24AM -19.3830 133.1396 171° South 33,000  Level Aus ATC (Calculated)
02:25AM -19.4960 133.1579 171° South  Level FlightAware Approximate
02:25AM -19.5043 133.1593 171° South 33,000  Level Aus ATC (Calculated)
02:27AM -19.7264 133.1954 171° South  Level FlightAware Approximate
02:28AM -19.8394 133.2138 171° South  Level FlightAware Approximate
02:29AM -19.9524 133.2322 171° South  Level FlightAware Approximate
02:30AM -20.0653 133.2507 171° South  Level FlightAware Approximate
02:31AM -20.1782 133.2692 171° South  Level FlightAware Approximate
02:32AM -20.2912 133.2877 171° South  Level FlightAware Approximate
02:33AM -20.4041 133.3062 171° South  Level FlightAware Approximate
02:34AM -20.5171 133.3248 171° South  Level FlightAware Approximate
02:35AM -20.6300 133.3433 171° South  Level FlightAware Approximate
02:36AM -20.7430 133.3619 171° South  Level FlightAware Approximate
02:37AM -20.8559 133.3806 171° South  Level FlightAware Approximate
02:37AM -20.9826 133.4015 171° South 33,000  Level Aus ATC (Calculated)
02:39AM -21.1991 133.4374 171° South  Level FlightAware Approximate
02:40AM -21.3120 133.4561 171° South  Level FlightAware Approximate
02:40AM -21.3237 133.4581 360° North  Level Aus ATC (Calculated)
02:42AM -21.1047 133.4581 North  Level FlightAware Approximate
02:42AM -21.6324 133.5098 353° North 800  Level Aus ATC (Calculated)
02:43AM -21.2190 133.4581 180° South  Level FlightAware Approximate
02:44AM -21.4838 133.4849 351° North  Level FlightAware Approximate
02:44AM -21.7684 133.5339 171° South  Level Aus ATC (Calculated)
02:44AM -21.8317 133.5445 217° Southwest 800 1,080 Climbing Aus ATC (Calculated)
02:44AM -21.8317 133.5445 351° North 800  Level Aus ATC (Calculated)
02:46AM -21.7057 133.5230 351° North  Level FlightAware Approximate
02:47AM -21.8184 133.5431 171° South  Level Estimated
02:48AM -21.9313 133.5620 171° South  Level FlightAware Approximate
02:48AM -22.2608 133.6167 171° South 800  Level Aus ATC (Calculated)
02:50AM -22.3944 133.6393 171° South  Level FlightAware Approximate
02:51AM -22.5073 133.6584 171° South  Level FlightAware Approximate
02:52AM -22.6202 133.6775 171° South  Level FlightAware Approximate
02:52AM -22.6478 133.6871 171° South  Level Aus ATC (Calculated)
02:54AM -22.8267 133.7167 171° South  Level FlightAware Approximate
02:54AM -22.8625 133.7227 171° South 800  Level Aus ATC (Calculated)
02:56AM -23.0413 133.7524 171° South  Level FlightAware Approximate
02:56AM -23.0990 133.7670 172° South  Level Aus ATC (Calculated)
02:57AM -23.1857 133.7808 172° South 800 600 Climbing Aus ATC (Calculated)
02:58AM -23.2780 133.7956 172° South  Level FlightAware Approximate
02:59AM -23.3402 133.8055 172° South  Level FlightAware Approximate
02:59AM -23.4192 133.8257 173° South  Level Aus ATC (Calculated)
03:01AM -23.5741 133.8474 173° South  Level FlightAware Approximate
03:01AM -23.6060 133.8519 172° South 800  Level Aus ATC (Calculated)
03:02AM -23.7247 133.8711 360° North 800  Level Aus ATC (Calculated)
03:02AM -23.7247 133.8711 161° South 800  Level Aus ATC (Calculated)
03:04AM -23.8067 133.9022 175° South  Level Estimated
03:05AM -23.8067 133.9022 302° West  Level Estimated
03:06AM -23.8067 133.9022 302° West  Level Estimated
03:07AM -23.8067 133.9022 302° West  Level Estimated
03:08AM -23.8067 133.9022 302° West  Level Estimated
03:09AM -23.8067 133.9022 302° West  Level Estimated
03:10AM -23.7927 133.8782 171° South  Level FlightAware Approximate
03:11AM -23.8067 133.9022 171° South  Level Estimated
03:12AM -23.8067 133.9022 171° South  Level Estimated
03:13AM -23.8067 133.9022 171° South  Level Estimated
03:14AM -23.8067 133.9022 171° South  Level Estimated
03:15AM -23.8067 133.9022 171° South  Level Estimated
03:16AM -23.8067 133.9022 171° South  Level Estimated
03:17AM -23.8067 133.9022 171° South  Level Estimated
03:18AM -23.8067 133.9022 171° South  Level Estimated
03:19AM -23.8067 133.9022 171° South  Level Estimated